Time,TemperatureF,DewpointF,PressureIn,WindDirection,WindDirectionDegrees,WindSpeedMPH,WindSpeedGustMPH,Humidity,HourlyPrecipIn,Conditions,Clouds,dailyrainin,SoftwareType,DateUTC
2013-03-02 00:02:00,25.0,20.0,29.79,NNE,23,3.0,13.0,81,0.00,,,0.00,,2013-03-02 05:02:00,
2013-03-02 00:12:00,25.0,20.0,29.79,NNE,23,3.0,13.0,81,0.00,,,0.00,,2013-03-02 05:12:00,
2013-03-02 00:22:00,25.0,20.0,29.79,NNE,23,3.0,13.0,81,0.00,,,0.00,,2013-03-02 05:22:00,
2013-03-02 00:32:00,25.0,20.0,29.77,NNW,329,1.0,11.0,80,0.00,,,0.00,,2013-03-02 05:32:00,
2013-03-02 00:42:00,25.0,20.0,29.77,NNW,329,1.0,11.0,80,0.00,,,0.00,,2013-03-02 05:42:00,
2013-03-02 00:52:00,25.0,20.0,29.77,NNW,329,1.0,11.0,80,0.00,,,0.00,,2013-03-02 05:52:00,
2013-03-02 01:02:00,25.0,19.0,29.76,WNW,297,7.0,20.0,78,0.00,,,0.00,,2013-03-02 06:02:00,
2013-03-02 01:11:00,25.0,19.0,29.76,WNW,297,7.0,20.0,78,0.00,,,0.00,,2013-03-02 06:11:00,
2013-03-02 01:22:00,25.0,19.0,29.77,NNW,337,1.0,17.0,77,0.00,,,0.00,,2013-03-02 06:22:00,
2013-03-02 01:32:00,25.0,19.0,29.78,North,4,3.0,18.0,78,0.00,,,0.00,,2013-03-02 06:32:00,
2013-03-02 01:42:00,25.0,19.0,29.78,North,4,3.0,18.0,78,0.00,,,0.00,,2013-03-02 06:42:00,
2013-03-02 01:52:00,25.0,19.0,29.77,NNE,25,2.0,12.0,78,0.00,,,0.00,,2013-03-02 06:52:00,
2013-03-02 02:01:00,24.0,18.0,29.78,WNW,286,3.0,12.0,78,0.00,,,0.00,,2013-03-02 07:01:00,
2013-03-02 02:11:00,24.0,18.0,29.76,WNW,299,6.0,16.0,78,0.00,,,0.00,,2013-03-02 07:11:00,
2013-03-02 02:21:00,24.0,18.0,29.76,WNW,299,6.0,16.0,78,0.00,,,0.00,,2013-03-02 07:21:00,
2013-03-02 02:32:00,24.0,18.0,29.76,SW,235,1.0,13.0,78,0.00,,,0.00,,2013-03-02 07:32:00,
2013-03-02 02:42:00,24.0,18.0,29.76,SW,235,1.0,13.0,78,0.00,,,0.00,,2013-03-02 07:42:00,
2013-03-02 02:52:00,24.0,18.0,29.77,NW,318,4.0,11.0,79,0.00,,,0.00,,2013-03-02 07:52:00,
2013-03-02 03:01:00,24.0,18.0,29.77,NNW,329,4.0,11.0,79,0.00,,,0.00,,2013-03-02 08:01:00,
2013-03-02 03:11:00,24.0,18.0,29.77,NNW,329,4.0,11.0,79,0.00,,,0.00,,2013-03-02 08:11:00,
2013-03-02 03:22:00,24.0,19.0,29.77,West,260,1.0,14.0,80,0.00,,,0.00,,2013-03-02 08:22:00,
2013-03-02 03:32:00,24.0,19.0,29.76,North,0,0.0,8.0,80,0.00,,,0.00,,2013-03-02 08:32:00,
2013-03-02 03:42:00,24.0,19.0,29.76,North,0,0.0,8.0,80,0.00,,,0.00,,2013-03-02 08:42:00,
2013-03-02 03:52:00,24.0,18.0,29.76,NNE,25,1.0,8.0,79,0.00,,,0.00,,2013-03-02 08:52:00,
2013-03-02 04:02:00,24.0,19.0,29.77,North,0,0.0,5.0,80,0.00,,,0.00,,2013-03-02 09:02:00,
2013-03-02 04:11:00,24.0,19.0,29.76,WSW,241,2.0,8.0,80,0.00,,,0.00,,2013-03-02 09:11:00,
2013-03-02 04:22:00,24.0,19.0,29.76,WSW,241,2.0,8.0,80,0.00,,,0.00,,2013-03-02 09:22:00,
2013-03-02 04:32:00,24.0,19.0,29.75,North,350,3.0,12.0,80,0.00,,,0.00,,2013-03-02 09:32:00,
2013-03-02 04:42:00,24.0,19.0,29.75,North,350,3.0,12.0,80,0.00,,,0.00,,2013-03-02 09:42:00,
2013-03-02 04:52:00,23.0,18.0,29.74,NNW,335,5.0,16.0,81,0.00,,,0.00,,2013-03-02 09:52:00,
2013-03-02 05:01:00,23.0,18.0,29.74,North,349,1.0,7.0,81,0.00,,,0.00,,2013-03-02 10:01:00,
2013-03-02 05:16:00,23.0,18.0,29.74,North,349,1.0,7.0,81,0.00,,,0.00,,2013-03-02 10:16:00,
2013-03-02 05:22:00,23.0,18.0,29.73,NNE,23,1.0,10.0,82,0.00,,,0.00,,2013-03-02 10:22:00,
2013-03-02 05:32:00,23.0,18.0,29.74,NNW,338,3.0,11.0,82,0.00,,,0.00,,2013-03-02 10:32:00,
2013-03-02 05:43:00,23.0,18.0,29.74,NNW,338,3.0,11.0,82,0.00,,,0.00,,2013-03-02 10:43:00,
2013-03-02 05:52:00,23.0,18.0,29.74,North,356,3.0,10.0,82,0.00,,,0.00,,2013-03-02 10:52:00,
2013-03-02 06:01:00,23.0,18.0,29.74,NNE,26,2.0,9.0,82,0.00,,,0.00,,2013-03-02 11:01:00,
2013-03-02 06:11:00,23.0,18.0,29.74,NNE,26,2.0,9.0,82,0.00,,,0.00,,2013-03-02 11:11:00,
2013-03-02 06:21:00,23.0,18.0,29.74,NW,304,3.0,14.0,82,0.00,,,0.00,,2013-03-02 11:21:00,
2013-03-02 06:32:00,23.0,18.0,29.74,NNW,340,4.0,12.0,82,0.00,,,0.00,,2013-03-02 11:32:00,
2013-03-02 06:42:00,23.0,18.0,29.74,NNW,340,4.0,12.0,82,0.00,,,0.00,,2013-03-02 11:42:00,
2013-03-02 06:52:00,23.0,18.0,29.74,North,357,4.0,13.0,82,0.00,,,0.00,,2013-03-02 11:52:00,
2013-03-02 07:02:00,23.0,19.0,29.75,North,4,1.0,8.0,83,0.00,,,0.00,,2013-03-02 12:02:00,
2013-03-02 07:11:00,23.0,19.0,29.75,North,4,1.0,8.0,83,0.00,,,0.00,,2013-03-02 12:11:00,
2013-03-02 07:22:00,23.0,19.0,29.75,NW,323,2.0,8.0,83,0.00,,,0.00,,2013-03-02 12:22:00,
2013-03-02 07:33:00,23.0,19.0,29.75,NNW,339,1.0,9.0,84,0.00,,,0.00,,2013-03-02 12:33:00,
2013-03-02 07:43:00,23.0,19.0,29.75,NNW,339,1.0,9.0,84,0.00,,,0.00,,2013-03-02 12:43:00,
2013-03-02 07:53:00,23.0,19.0,29.75,North,354,2.0,10.0,84,0.00,,,0.00,,2013-03-02 12:53:00,
2013-03-02 08:01:00,23.0,19.0,29.76,NW,304,4.0,10.0,84,0.00,,,0.00,,2013-03-02 13:01:00,
2013-03-02 08:11:00,23.0,19.0,29.76,NW,304,4.0,10.0,84,0.00,,,0.00,,2013-03-02 13:11:00,
2013-03-02 08:22:00,23.0,18.0,29.76,North,9,4.0,16.0,82,0.00,,,0.00,,2013-03-02 13:22:00,
2013-03-02 08:32:00,23.0,18.0,29.76,North,351,4.0,15.0,82,0.00,,,0.00,,2013-03-02 13:32:00,
2013-03-02 08:42:00,23.0,18.0,29.76,North,351,4.0,15.0,82,0.00,,,0.00,,2013-03-02 13:42:00,
2013-03-02 08:52:00,23.0,18.0,29.77,NNW,341,6.0,14.0,82,0.00,,,0.00,,2013-03-02 13:52:00,
2013-03-02 09:01:00,23.0,18.0,29.76,WNW,292,6.0,14.0,82,0.00,,,0.00,,2013-03-02 14:01:00,
2013-03-02 09:11:00,23.0,18.0,29.76,WNW,292,6.0,14.0,82,0.00,,,0.00,,2013-03-02 14:11:00,
2013-03-02 09:22:00,23.0,18.0,29.76,NNW,333,7.0,16.0,81,0.00,,,0.00,,2013-03-02 14:22:00,
2013-03-02 09:32:00,23.0,18.0,29.75,WNW,290,4.0,15.0,80,0.00,,,0.00,,2013-03-02 14:32:00,
2013-03-02 09:42:00,23.0,18.0,29.75,WNW,290,4.0,15.0,80,0.00,,,0.00,,2013-03-02 14:42:00,
2013-03-02 09:52:00,24.0,18.0,29.76,NW,322,4.0,15.0,79,0.00,,,0.00,,2013-03-02 14:52:00,
2013-03-02 10:02:00,24.0,18.0,29.76,NW,312,3.0,9.0,79,0.00,,,0.00,,2013-03-02 15:02:00,
2013-03-02 10:11:00,24.0,18.0,29.76,NW,312,3.0,9.0,79,0.00,,,0.00,,2013-03-02 15:11:00,
2013-03-02 10:22:00,24.0,18.0,29.75,NNW,328,3.0,12.0,78,0.00,,,0.00,,2013-03-02 15:22:00,
2013-03-02 10:32:00,24.0,18.0,29.75,NW,311,2.0,10.0,78,0.00,,,0.00,,2013-03-02 15:32:00,
2013-03-02 10:42:00,24.0,18.0,29.75,NW,311,2.0,10.0,78,0.00,,,0.00,,2013-03-02 15:42:00,
2013-03-02 10:52:00,24.0,18.0,29.76,NW,315,6.0,18.0,76,0.00,,,0.00,,2013-03-02 15:52:00,
2013-03-02 11:02:00,24.0,18.0,29.76,WNW,288,4.0,16.0,76,0.00,,,0.00,,2013-03-02 16:02:00,
2013-03-02 11:11:00,24.0,18.0,29.76,WNW,288,4.0,16.0,76,0.00,,,0.00,,2013-03-02 16:11:00,
2013-03-02 11:21:00,24.0,18.0,29.75,WSW,258,2.0,16.0,76,0.00,,,0.00,,2013-03-02 16:21:00,
2013-03-02 11:32:00,24.0,17.0,29.75,WNW,291,6.0,15.0,75,0.00,,,0.00,,2013-03-02 16:32:00,
2013-03-02 11:42:00,24.0,17.0,29.75,WNW,291,6.0,15.0,75,0.00,,,0.00,,2013-03-02 16:42:00,
2013-03-02 11:52:00,24.0,18.0,29.75,West,268,5.0,14.0,76,0.00,,,0.00,,2013-03-02 16:52:00,
2013-03-02 12:01:00,25.0,18.0,29.75,WNW,302,3.0,14.0,74,0.00,,,0.00,,2013-03-02 17:01:00,
2013-03-02 12:11:00,25.0,18.0,29.75,NNW,340,2.0,8.0,75,0.00,,,0.00,,2013-03-02 17:11:00,
2013-03-02 12:21:00,25.0,18.0,29.75,NNW,340,2.0,8.0,75,0.00,,,0.00,,2013-03-02 17:21:00,
2013-03-02 12:32:00,25.0,18.0,29.74,WSW,237,4.0,16.0,75,0.00,,,0.00,,2013-03-02 17:32:00,
2013-03-02 12:42:00,25.0,18.0,29.74,WSW,237,4.0,16.0,75,0.00,,,0.00,,2013-03-02 17:42:00,
2013-03-02 12:52:00,24.0,18.0,29.74,WNW,294,6.0,22.0,76,0.00,,,0.00,,2013-03-02 17:52:00,
2013-03-02 13:02:00,24.0,17.0,29.74,West,276,8.0,18.0,74,0.00,,,0.00,,2013-03-02 18:02:00,
2013-03-02 13:11:00,24.0,17.0,29.74,West,276,8.0,18.0,74,0.00,,,0.00,,2013-03-02 18:11:00,
2013-03-02 13:22:00,24.0,18.0,29.73,West,281,8.0,19.0,76,0.00,,,0.00,,2013-03-02 18:22:00,
2013-03-02 13:32:00,24.0,17.0,29.72,West,259,7.0,16.0,75,0.00,,,0.00,,2013-03-02 18:32:00,
2013-03-02 13:42:00,24.0,17.0,29.72,West,259,7.0,16.0,75,0.00,,,0.00,,2013-03-02 18:42:00,
2013-03-02 13:52:00,25.0,18.0,29.72,West,270,8.0,19.0,74,0.00,,,0.00,,2013-03-02 18:52:00,
2013-03-02 14:01:00,24.0,17.0,29.72,WNW,295,6.0,24.0,75,0.00,,,0.00,,2013-03-02 19:01:00,
2013-03-02 14:12:00,24.0,17.0,29.72,WNW,295,6.0,24.0,75,0.00,,,0.00,,2013-03-02 19:12:00,
2013-03-02 14:22:00,24.0,17.0,29.72,WNW,288,6.0,18.0,74,0.00,,,0.00,,2013-03-02 19:22:00,
2013-03-02 14:32:00,25.0,18.0,29.71,WNW,296,6.0,19.0,73,0.00,,,0.00,,2013-03-02 19:32:00,
2013-03-02 14:42:00,25.0,18.0,29.71,WNW,296,6.0,19.0,73,0.00,,,0.00,,2013-03-02 19:42:00,
2013-03-02 14:52:00,25.0,17.0,29.71,WNW,298,3.0,15.0,72,0.00,,,0.00,,2013-03-02 19:52:00,
2013-03-02 15:01:00,24.0,17.0,29.72,WNW,287,7.0,20.0,73,0.00,,,0.00,,2013-03-02 20:01:00,
2013-03-02 15:11:00,24.0,17.0,29.72,WNW,287,7.0,20.0,73,0.00,,,0.00,,2013-03-02 20:11:00,
2013-03-02 15:22:00,24.0,17.0,29.71,NNW,345,7.0,25.0,73,0.00,,,0.00,,2013-03-02 20:22:00,
2013-03-02 15:32:00,24.0,17.0,29.72,WNW,298,7.0,18.0,74,0.00,,,0.00,,2013-03-02 20:32:00,
2013-03-02 15:42:00,24.0,17.0,29.72,WNW,298,7.0,18.0,74,0.00,,,0.00,,2013-03-02 20:42:00,
2013-03-02 15:53:00,23.0,16.0,29.72,NW,308,12.0,18.0,74,0.00,,,0.00,,2013-03-02 20:53:00,
2013-03-02 16:02:00,23.0,16.0,29.72,NW,316,10.0,20.0,73,0.00,,,0.00,,2013-03-02 21:02:00,
2013-03-02 16:11:00,23.0,16.0,29.72,NW,316,10.0,20.0,73,0.00,,,0.00,,2013-03-02 21:11:00,
2013-03-02 16:22:00,23.0,16.0,29.72,NW,311,4.0,22.0,73,0.00,,,0.00,,2013-03-02 21:22:00,
2013-03-02 16:32:00,23.0,15.0,29.72,NNW,342,6.0,19.0,72,0.00,,,0.00,,2013-03-02 21:32:00,
2013-03-02 16:42:00,23.0,15.0,29.72,NNW,342,6.0,19.0,72,0.00,,,0.00,,2013-03-02 21:42:00,
2013-03-02 16:52:00,22.0,14.0,29.72,NNW,347,9.0,21.0,71,0.00,,,0.00,,2013-03-02 21:52:00,
2013-03-02 17:02:00,22.0,15.0,29.72,North,350,3.0,21.0,73,0.00,,,0.00,,2013-03-02 22:02:00,
2013-03-02 17:11:00,22.0,15.0,29.72,North,350,3.0,21.0,73,0.00,,,0.00,,2013-03-02 22:11:00,
2013-03-02 17:22:00,22.0,15.0,29.73,North,349,5.0,20.0,73,0.00,,,0.00,,2013-03-02 22:22:00,
2013-03-02 17:32:00,21.0,14.0,29.73,NNW,333,9.0,23.0,73,0.00,,,0.00,,2013-03-02 22:32:00,
2013-03-02 17:42:00,21.0,14.0,29.73,NNW,333,9.0,23.0,73,0.00,,,0.00,,2013-03-02 22:42:00,
2013-03-02 17:52:00,21.0,14.0,29.73,WNW,287,8.0,25.0,75,0.00,,,0.00,,2013-03-02 22:52:00,
2013-03-02 18:01:00,21.0,15.0,29.74,NW,313,7.0,24.0,76,0.00,,,0.00,,2013-03-02 23:01:00,
2013-03-02 18:11:00,21.0,15.0,29.74,NW,313,7.0,24.0,76,0.00,,,0.00,,2013-03-02 23:11:00,
2013-03-02 18:21:00,21.0,15.0,29.74,NW,313,7.0,24.0,76,0.00,,,0.00,,2013-03-02 23:21:00,
2013-03-02 18:32:00,20.0,14.0,29.75,NNW,341,4.0,17.0,78,0.00,,,0.00,,2013-03-02 23:32:00,
2013-03-02 18:42:00,20.0,14.0,29.75,NNW,341,4.0,17.0,78,0.00,,,0.00,,2013-03-02 23:42:00,
2013-03-02 18:52:00,20.0,14.0,29.75,NNW,341,4.0,17.0,78,0.00,,,0.00,,2013-03-02 23:52:00,
2013-03-02 19:02:00,20.0,14.0,29.75,NNW,341,4.0,17.0,78,0.00,,,0.00,,2013-03-03 00:02:00,
2013-03-02 19:11:00,20.0,14.0,29.75,NNW,341,4.0,17.0,78,0.00,,,0.00,,2013-03-03 00:11:00,
2013-03-02 19:22:00,20.0,14.0,29.76,NW,315,9.0,17.0,77,0.00,,,0.00,,2013-03-03 00:22:00,
2013-03-02 19:32:00,20.0,14.0,29.76,North,350,7.0,17.0,77,0.00,,,0.00,,2013-03-03 00:32:00,
2013-03-02 19:42:00,20.0,14.0,29.76,North,350,7.0,17.0,77,0.00,,,0.00,,2013-03-03 00:42:00,
2013-03-02 19:52:00,20.0,14.0,29.77,NNW,336,8.0,23.0,77,0.00,,,0.00,,2013-03-03 00:52:00,
2013-03-02 20:01:00,20.0,14.0,29.77,NNW,334,8.0,20.0,77,0.00,,,0.00,,2013-03-03 01:01:00,
2013-03-02 20:11:00,20.0,14.0,29.77,NNW,334,8.0,20.0,77,0.00,,,0.00,,2013-03-03 01:11:00,
2013-03-02 20:21:00,20.0,14.0,29.76,WNW,290,6.0,18.0,76,0.00,,,0.00,,2013-03-03 01:21:00,
2013-03-02 20:32:00,20.0,14.0,29.77,North,360,4.0,17.0,78,0.00,,,0.00,,2013-03-03 01:32:00,
2013-03-02 20:42:00,20.0,14.0,29.77,North,360,4.0,17.0,78,0.00,,,0.00,,2013-03-03 01:42:00,
2013-03-02 20:52:00,20.0,14.0,29.77,WSW,245,3.0,16.0,78,0.00,,,0.00,,2013-03-03 01:52:00,
2013-03-02 21:01:00,20.0,14.0,29.78,North,354,5.0,12.0,77,0.00,,,0.00,,2013-03-03 02:01:00,
2013-03-02 21:11:00,20.0,14.0,29.78,North,359,3.0,12.0,78,0.00,,,0.00,,2013-03-03 02:11:00,
2013-03-02 21:21:00,20.0,14.0,29.78,North,359,3.0,12.0,78,0.00,,,0.00,,2013-03-03 02:21:00,
2013-03-02 21:32:00,20.0,15.0,29.78,WNW,300,4.0,14.0,79,0.00,,,0.00,,2013-03-03 02:32:00,
2013-03-02 21:42:00,20.0,15.0,29.78,WNW,300,4.0,14.0,79,0.00,,,0.00,,2013-03-03 02:42:00,
2013-03-02 21:52:00,20.0,15.0,29.78,NW,315,9.0,20.0,80,0.00,,,0.00,,2013-03-03 02:52:00,
2013-03-02 22:01:00,20.0,15.0,29.78,NW,319,4.0,16.0,80,0.00,,,0.00,,2013-03-03 03:01:00,
2013-03-02 22:11:00,20.0,15.0,29.78,NW,319,4.0,16.0,80,0.00,,,0.00,,2013-03-03 03:11:00,
2013-03-02 22:21:00,20.0,15.0,29.78,NW,309,7.0,26.0,80,0.00,,,0.00,,2013-03-03 03:21:00,
2013-03-02 22:32:00,20.0,16.0,29.78,North,8,9.0,23.0,83,0.00,,,0.00,,2013-03-03 03:32:00,
2013-03-02 22:42:00,20.0,16.0,29.78,North,8,9.0,23.0,83,0.00,,,0.00,,2013-03-03 03:42:00,
2013-03-02 22:52:00,20.0,16.0,29.78,North,8,9.0,23.0,83,0.00,,,0.00,,2013-03-03 03:52:00,
2013-03-02 23:01:00,19.0,14.0,29.78,NW,319,9.0,24.0,80,0.00,,,0.00,,2013-03-03 04:01:00,
2013-03-02 23:11:00,19.0,14.0,29.78,NW,319,9.0,24.0,80,0.00,,,0.00,,2013-03-03 04:11:00,
2013-03-02 23:22:00,19.0,14.0,29.77,WNW,291,7.0,21.0,79,0.00,,,0.00,,2013-03-03 04:22:00,
2013-03-02 23:32:00,19.0,13.0,29.77,North,11,6.0,17.0,78,0.00,,,0.00,,2013-03-03 04:32:00,
2013-03-02 23:42:00,19.0,13.0,29.77,North,11,6.0,17.0,78,0.00,,,0.00,,2013-03-03 04:42:00,
2013-03-02 23:52:00,19.0,13.0,29.76,NNW,329,6.0,14.0,78,0.00,,,0.00,,2013-03-03 04:52:00,